sensor_id;sensor_type;location;lat;lon;timestamp;P1;durP1;ratioP1;P2;durP2;ratioP2
49071;SDS011;52656;52.610;10.236;2023-05-07T00:00:12;18.77;;;10.83;;
49071;SDS011;52656;52.610;10.236;2023-05-07T00:02:40;17.80;;;11.25;;
49071;SDS011;52656;52.610;10.236;2023-05-07T00:05:06;15.75;;;10.55;;
49071;SDS011;52656;52.610;10.236;2023-05-07T00:09:57;19.80;;;10.65;;
49071;SDS011;52656;52.610;10.236;2023-05-07T00:12:22;13.97;;;9.77;;
49071;SDS011;52656;52.610;10.236;2023-05-07T00:14:47;13.23;;;9.45;;
49071;SDS011;52656;52.610;10.236;2023-05-07T00:17:13;19.42;;;11.07;;
49071;SDS011;52656;52.610;10.236;2023-05-07T00:19:38;16.20;;;9.30;;
49071;SDS011;52656;52.610;10.236;2023-05-07T00:22:03;16.50;;;9.90;;
49071;SDS011;52656;52.610;10.236;2023-05-07T00:24:29;17.97;;;10.23;;
49071;SDS011;52656;52.610;10.236;2023-05-07T00:26:54;19.00;;;11.95;;
49071;SDS011;52656;52.610;10.236;2023-05-07T00:29:19;17.23;;;10.52;;
49071;SDS011;52656;52.610;10.236;2023-05-07T00:31:45;19.97;;;11.77;;
49071;SDS011;52656;52.610;10.236;2023-05-07T00:34:10;20.30;;;11.83;;
49071;SDS011;52656;52.610;10.236;2023-05-07T00:36:35;15.07;;;10.70;;
49071;SDS011;52656;52.610;10.236;2023-05-07T00:39:01;14.67;;;9.27;;
49071;SDS011;52656;52.610;10.236;2023-05-07T00:41:28;17.92;;;11.57;;
49071;SDS011;52656;52.610;10.236;2023-05-07T00:43:54;22.85;;;13.88;;
49071;SDS011;52656;52.610;10.236;2023-05-07T00:46:20;19.27;;;12.47;;
49071;SDS011;52656;52.610;10.236;2023-05-07T00:48:46;25.20;;;13.48;;
49071;SDS011;52656;52.610;10.236;2023-05-07T00:51:12;21.33;;;13.50;;
49071;SDS011;52656;52.610;10.236;2023-05-07T00:53:37;17.63;;;12.07;;
49071;SDS011;52656;52.610;10.236;2023-05-07T00:56:03;21.65;;;12.57;;
49071;SDS011;52656;52.610;10.236;2023-05-07T00:58:28;16.73;;;10.68;;
49071;SDS011;52656;52.610;10.236;2023-05-07T01:00:55;16.27;;;11.13;;
49071;SDS011;52656;52.610;10.236;2023-05-07T01:03:20;17.67;;;10.95;;
49071;SDS011;52656;52.610;10.236;2023-05-07T01:05:45;16.13;;;10.52;;
49071;SDS011;52656;52.610;10.236;2023-05-07T01:08:14;13.13;;;9.10;;
49071;SDS011;52656;52.610;10.236;2023-05-07T01:10:40;13.55;;;9.68;;
49071;SDS011;52656;52.610;10.236;2023-05-07T01:13:08;14.68;;;8.77;;
49071;SDS011;52656;52.610;10.236;2023-05-07T01:15:35;15.82;;;9.77;;
49071;SDS011;52656;52.610;10.236;2023-05-07T01:18:00;12.85;;;9.52;;
49071;SDS011;52656;52.610;10.236;2023-05-07T01:20:26;14.00;;;9.65;;
49071;SDS011;52656;52.610;10.236;2023-05-07T01:22:52;13.88;;;8.13;;
49071;SDS011;52656;52.610;10.236;2023-05-07T01:25:18;15.30;;;9.30;;
49071;SDS011;52656;52.610;10.236;2023-05-07T01:27:43;14.25;;;10.07;;
49071;SDS011;52656;52.610;10.236;2023-05-07T01:30:09;13.38;;;8.45;;
49071;SDS011;52656;52.610;10.236;2023-05-07T01:35:10;12.43;;;8.88;;
49071;SDS011;52656;52.610;10.236;2023-05-07T01:37:39;13.50;;;9.93;;
49071;SDS011;52656;52.610;10.236;2023-05-07T01:40:05;13.75;;;9.63;;
49071;SDS011;52656;52.610;10.236;2023-05-07T01:42:32;15.55;;;8.85;;
49071;SDS011;52656;52.610;10.236;2023-05-07T01:44:57;11.48;;;7.38;;
49071;SDS011;52656;52.610;10.236;2023-05-07T01:47:23;14.80;;;8.82;;
49071;SDS011;52656;52.610;10.236;2023-05-07T01:49:49;13.80;;;7.00;;
49071;SDS011;52656;52.610;10.236;2023-05-07T01:52:15;12.35;;;8.45;;
49071;SDS011;52656;52.610;10.236;2023-05-07T01:54:40;10.73;;;7.15;;
49071;SDS011;52656;52.610;10.236;2023-05-07T01:57:05;12.35;;;8.07;;
49071;SDS011;52656;52.610;10.236;2023-05-07T01:59:31;10.95;;;7.53;;
49071;SDS011;52656;52.610;10.236;2023-05-07T02:01:56;9.23;;;6.18;;
49071;SDS011;52656;52.610;10.236;2023-05-07T02:04:21;12.55;;;7.85;;
49071;SDS011;52656;52.610;10.236;2023-05-07T02:06:47;11.93;;;7.10;;
49071;SDS011;52656;52.610;10.236;2023-05-07T02:09:13;13.23;;;9.25;;
49071;SDS011;52656;52.610;10.236;2023-05-07T02:11:40;10.48;;;7.10;;
49071;SDS011;52656;52.610;10.236;2023-05-07T02:14:05;12.85;;;8.30;;
49071;SDS011;52656;52.610;10.236;2023-05-07T02:16:30;15.82;;;10.05;;
49071;SDS011;52656;52.610;10.236;2023-05-07T02:18:55;13.33;;;7.90;;
49071;SDS011;52656;52.610;10.236;2023-05-07T02:21:21;10.90;;;6.90;;
49071;SDS011;52656;52.610;10.236;2023-05-07T02:23:46;13.80;;;9.15;;
49071;SDS011;52656;52.610;10.236;2023-05-07T02:26:12;14.32;;;7.75;;
49071;SDS011;52656;52.610;10.236;2023-05-07T02:28:37;12.65;;;8.38;;
49071;SDS011;52656;52.610;10.236;2023-05-07T02:31:03;12.90;;;8.00;;
49071;SDS011;52656;52.610;10.236;2023-05-07T02:35:54;11.38;;;7.57;;
49071;SDS011;52656;52.610;10.236;2023-05-07T02:38:19;10.65;;;7.47;;
49071;SDS011;52656;52.610;10.236;2023-05-07T02:40:45;12.63;;;7.63;;
49071;SDS011;52656;52.610;10.236;2023-05-07T02:43:10;14.88;;;7.47;;
49071;SDS011;52656;52.610;10.236;2023-05-07T02:45:35;11.93;;;8.40;;
49071;SDS011;52656;52.610;10.236;2023-05-07T02:48:02;12.98;;;8.52;;
49071;SDS011;52656;52.610;10.236;2023-05-07T02:50:28;13.77;;;7.55;;
49071;SDS011;52656;52.610;10.236;2023-05-07T02:52:53;16.23;;;8.83;;
49071;SDS011;52656;52.610;10.236;2023-05-07T02:55:19;10.48;;;6.53;;
49071;SDS011;52656;52.610;10.236;2023-05-07T02:57:44;10.07;;;6.78;;
49071;SDS011;52656;52.610;10.236;2023-05-07T03:00:13;9.70;;;6.80;;
49071;SDS011;52656;52.610;10.236;2023-05-07T03:02:40;8.45;;;5.28;;
49071;SDS011;52656;52.610;10.236;2023-05-07T03:05:06;10.52;;;7.25;;
49071;SDS011;52656;52.610;10.236;2023-05-07T03:07:31;10.20;;;6.22;;
49071;SDS011;52656;52.610;10.236;2023-05-07T03:09:57;10.23;;;7.32;;
49071;SDS011;52656;52.610;10.236;2023-05-07T03:12:22;9.63;;;7.72;;
49071;SDS011;52656;52.610;10.236;2023-05-07T03:14:47;10.13;;;6.80;;
49071;SDS011;52656;52.610;10.236;2023-05-07T03:17:13;10.27;;;7.27;;
49071;SDS011;52656;52.610;10.236;2023-05-07T03:19:38;9.38;;;6.18;;
49071;SDS011;52656;52.610;10.236;2023-05-07T03:22:03;9.33;;;6.63;;
49071;SDS011;52656;52.610;10.236;2023-05-07T03:24:29;8.15;;;5.13;;
49071;SDS011;52656;52.610;10.236;2023-05-07T03:26:54;9.40;;;5.70;;
49071;SDS011;52656;52.610;10.236;2023-05-07T03:29:19;8.25;;;5.90;;
49071;SDS011;52656;52.610;10.236;2023-05-07T03:31:44;10.70;;;7.37;;
49071;SDS011;52656;52.610;10.236;2023-05-07T03:34:10;12.30;;;7.93;;
49071;SDS011;52656;52.610;10.236;2023-05-07T03:36:35;9.77;;;5.43;;
49071;SDS011;52656;52.610;10.236;2023-05-07T03:39:01;10.02;;;7.60;;
49071;SDS011;52656;52.610;10.236;2023-05-07T03:41:26;11.75;;;8.35;;
49071;SDS011;52656;52.610;10.236;2023-05-07T03:43:51;11.68;;;7.72;;
49071;SDS011;52656;52.610;10.236;2023-05-07T03:46:17;12.93;;;8.83;;
49071;SDS011;52656;52.610;10.236;2023-05-07T03:48:42;12.47;;;9.77;;
49071;SDS011;52656;52.610;10.236;2023-05-07T03:51:07;13.63;;;9.43;;
49071;SDS011;52656;52.610;10.236;2023-05-07T03:53:32;10.75;;;8.23;;
49071;SDS011;52656;52.610;10.236;2023-05-07T03:55:58;15.32;;;10.10;;
49071;SDS011;52656;52.610;10.236;2023-05-07T03:58:23;12.85;;;8.10;;
49071;SDS011;52656;52.610;10.236;2023-05-07T04:00:48;11.20;;;9.07;;
49071;SDS011;52656;52.610;10.236;2023-05-07T04:03:14;11.93;;;9.48;;
49071;SDS011;52656;52.610;10.236;2023-05-07T04:05:40;14.93;;;10.27;;
49071;SDS011;52656;52.610;10.236;2023-05-07T04:08:05;13.45;;;9.55;;
49071;SDS011;52656;52.610;10.236;2023-05-07T04:10:31;11.15;;;7.88;;
49071;SDS011;52656;52.610;10.236;2023-05-07T04:12:56;12.38;;;9.45;;
49071;SDS011;52656;52.610;10.236;2023-05-07T04:15:22;12.82;;;9.23;;
49071;SDS011;52656;52.610;10.236;2023-05-07T04:17:48;11.60;;;7.80;;
49071;SDS011;52656;52.610;10.236;2023-05-07T04:20:14;15.82;;;11.23;;
49071;SDS011;52656;52.610;10.236;2023-05-07T04:22:41;13.23;;;9.50;;
49071;SDS011;52656;52.610;10.236;2023-05-07T04:25:07;15.38;;;8.55;;
49071;SDS011;52656;52.610;10.236;2023-05-07T04:27:34;13.23;;;9.85;;
49071;SDS011;52656;52.610;10.236;2023-05-07T04:29:59;12.77;;;8.38;;
49071;SDS011;52656;52.610;10.236;2023-05-07T04:32:25;9.55;;;6.45;;
49071;SDS011;52656;52.610;10.236;2023-05-07T04:34:51;14.77;;;11.20;;
49071;SDS011;52656;52.610;10.236;2023-05-07T04:37:16;13.02;;;9.55;;
49071;SDS011;52656;52.610;10.236;2023-05-07T04:39:42;11.13;;;7.77;;
49071;SDS011;52656;52.610;10.236;2023-05-07T04:42:07;14.98;;;10.98;;
49071;SDS011;52656;52.610;10.236;2023-05-07T04:44:33;10.25;;;7.45;;
49071;SDS011;52656;52.610;10.236;2023-05-07T04:46:59;12.18;;;8.50;;
49071;SDS011;52656;52.610;10.236;2023-05-07T04:49:25;11.60;;;7.65;;
49071;SDS011;52656;52.610;10.236;2023-05-07T04:51:50;10.30;;;6.90;;
49071;SDS011;52656;52.610;10.236;2023-05-07T04:54:15;11.55;;;7.30;;
49071;SDS011;52656;52.610;10.236;2023-05-07T04:56:41;12.27;;;8.57;;
49071;SDS011;52656;52.610;10.236;2023-05-07T04:59:06;13.48;;;10.15;;
49071;SDS011;52656;52.610;10.236;2023-05-07T05:01:31;11.52;;;7.90;;
49071;SDS011;52656;52.610;10.236;2023-05-07T05:03:57;11.02;;;8.13;;
49071;SDS011;52656;52.610;10.236;2023-05-07T05:06:22;10.73;;;8.35;;
49071;SDS011;52656;52.610;10.236;2023-05-07T05:08:47;10.05;;;7.35;;
49071;SDS011;52656;52.610;10.236;2023-05-07T05:11:13;10.10;;;7.77;;
49071;SDS011;52656;52.610;10.236;2023-05-07T05:13:38;9.75;;;7.68;;
49071;SDS011;52656;52.610;10.236;2023-05-07T05:16:04;9.23;;;6.80;;
49071;SDS011;52656;52.610;10.236;2023-05-07T05:18:29;11.57;;;8.60;;
49071;SDS011;52656;52.610;10.236;2023-05-07T05:20:55;9.60;;;6.23;;
49071;SDS011;52656;52.610;10.236;2023-05-07T05:23:20;10.87;;;7.50;;
49071;SDS011;52656;52.610;10.236;2023-05-07T05:25:45;11.70;;;6.53;;
49071;SDS011;52656;52.610;10.236;2023-05-07T05:28:11;9.60;;;7.23;;
49071;SDS011;52656;52.610;10.236;2023-05-07T05:30:36;11.45;;;7.78;;
49071;SDS011;52656;52.610;10.236;2023-05-07T05:33:01;8.65;;;6.47;;
49071;SDS011;52656;52.610;10.236;2023-05-07T05:35:27;12.77;;;10.57;;
49071;SDS011;52656;52.610;10.236;2023-05-07T05:37:52;11.03;;;8.03;;
49071;SDS011;52656;52.610;10.236;2023-05-07T05:40:17;12.90;;;7.38;;
49071;SDS011;52656;52.610;10.236;2023-05-07T05:42:43;11.38;;;8.25;;
49071;SDS011;52656;52.610;10.236;2023-05-07T05:45:08;8.57;;;5.45;;
49071;SDS011;52656;52.610;10.236;2023-05-07T05:47:34;11.50;;;8.70;;
49071;SDS011;52656;52.610;10.236;2023-05-07T05:49:59;12.87;;;9.60;;
49071;SDS011;52656;52.610;10.236;2023-05-07T05:52:24;11.43;;;8.35;;
49071;SDS011;52656;52.610;10.236;2023-05-07T05:54:50;11.82;;;8.38;;
49071;SDS011;52656;52.610;10.236;2023-05-07T05:57:15;12.55;;;10.52;;
49071;SDS011;52656;52.610;10.236;2023-05-07T05:59:40;11.52;;;9.15;;
49071;SDS011;52656;52.610;10.236;2023-05-07T06:02:06;10.63;;;7.28;;
49071;SDS011;52656;52.610;10.236;2023-05-07T06:04:31;9.52;;;6.82;;
49071;SDS011;52656;52.610;10.236;2023-05-07T06:06:57;7.80;;;5.63;;
49071;SDS011;52656;52.610;10.236;2023-05-07T06:09:22;11.70;;;8.38;;
49071;SDS011;52656;52.610;10.236;2023-05-07T06:11:47;15.03;;;9.53;;
49071;SDS011;52656;52.610;10.236;2023-05-07T06:14:13;10.98;;;7.30;;
49071;SDS011;52656;52.610;10.236;2023-05-07T06:16:38;11.32;;;8.77;;
49071;SDS011;52656;52.610;10.236;2023-05-07T06:19:03;13.55;;;8.57;;
49071;SDS011;52656;52.610;10.236;2023-05-07T06:21:29;13.33;;;9.47;;
49071;SDS011;52656;52.610;10.236;2023-05-07T06:23:55;12.57;;;9.35;;
49071;SDS011;52656;52.610;10.236;2023-05-07T06:26:20;10.85;;;8.38;;
49071;SDS011;52656;52.610;10.236;2023-05-07T06:28:46;13.90;;;9.80;;
49071;SDS011;52656;52.610;10.236;2023-05-07T06:31:14;12.53;;;9.73;;
49071;SDS011;52656;52.610;10.236;2023-05-07T06:33:41;13.52;;;10.82;;
49071;SDS011;52656;52.610;10.236;2023-05-07T06:36:06;15.60;;;12.35;;
49071;SDS011;52656;52.610;10.236;2023-05-07T06:38:32;12.57;;;8.70;;
49071;SDS011;52656;52.610;10.236;2023-05-07T06:40:57;15.25;;;10.52;;
49071;SDS011;52656;52.610;10.236;2023-05-07T06:43:22;12.07;;;9.35;;
49071;SDS011;52656;52.610;10.236;2023-05-07T06:45:48;13.37;;;10.47;;
49071;SDS011;52656;52.610;10.236;2023-05-07T06:48:13;11.80;;;8.73;;
49071;SDS011;52656;52.610;10.236;2023-05-07T06:50:38;13.93;;;9.90;;
49071;SDS011;52656;52.610;10.236;2023-05-07T06:53:04;14.65;;;9.13;;
49071;SDS011;52656;52.610;10.236;2023-05-07T06:55:29;14.73;;;10.38;;
49071;SDS011;52656;52.610;10.236;2023-05-07T06:57:54;11.93;;;9.18;;
49071;SDS011;52656;52.610;10.236;2023-05-07T07:00:20;10.75;;;7.90;;
49071;SDS011;52656;52.610;10.236;2023-05-07T07:02:45;14.13;;;9.60;;
49071;SDS011;52656;52.610;10.236;2023-05-07T07:05:10;14.88;;;8.23;;
49071;SDS011;52656;52.610;10.236;2023-05-07T07:07:36;13.95;;;10.40;;
49071;SDS011;52656;52.610;10.236;2023-05-07T07:10:01;14.20;;;8.98;;
49071;SDS011;52656;52.610;10.236;2023-05-07T07:12:29;12.93;;;9.18;;
49071;SDS011;52656;52.610;10.236;2023-05-07T07:14:54;13.40;;;8.65;;
49071;SDS011;52656;52.610;10.236;2023-05-07T07:17:20;12.38;;;8.32;;
49071;SDS011;52656;52.610;10.236;2023-05-07T07:19:46;13.00;;;8.32;;
49071;SDS011;52656;52.610;10.236;2023-05-07T07:22:11;13.27;;;7.70;;
49071;SDS011;52656;52.610;10.236;2023-05-07T07:24:36;11.15;;;7.93;;
49071;SDS011;52656;52.610;10.236;2023-05-07T07:27:01;12.00;;;8.85;;
49071;SDS011;52656;52.610;10.236;2023-05-07T07:29:27;13.35;;;8.15;;
49071;SDS011;52656;52.610;10.236;2023-05-07T07:31:52;13.43;;;9.95;;
49071;SDS011;52656;52.610;10.236;2023-05-07T07:34:17;12.93;;;8.87;;
49071;SDS011;52656;52.610;10.236;2023-05-07T07:36:43;13.63;;;9.20;;
49071;SDS011;52656;52.610;10.236;2023-05-07T07:39:08;13.23;;;7.90;;
49071;SDS011;52656;52.610;10.236;2023-05-07T07:41:33;14.27;;;9.40;;
49071;SDS011;52656;52.610;10.236;2023-05-07T07:43:59;12.43;;;8.77;;
49071;SDS011;52656;52.610;10.236;2023-05-07T07:46:24;15.77;;;10.57;;
49071;SDS011;52656;52.610;10.236;2023-05-07T07:48:51;14.57;;;9.73;;
49071;SDS011;52656;52.610;10.236;2023-05-07T07:51:16;11.20;;;8.38;;
49071;SDS011;52656;52.610;10.236;2023-05-07T07:53:42;12.65;;;9.07;;
49071;SDS011;52656;52.610;10.236;2023-05-07T07:56:07;16.33;;;9.05;;
49071;SDS011;52656;52.610;10.236;2023-05-07T07:58:32;13.17;;;10.03;;
49071;SDS011;52656;52.610;10.236;2023-05-07T08:00:58;14.43;;;9.90;;
49071;SDS011;52656;52.610;10.236;2023-05-07T08:03:23;13.13;;;8.70;;
49071;SDS011;52656;52.610;10.236;2023-05-07T08:05:48;14.13;;;10.98;;
49071;SDS011;52656;52.610;10.236;2023-05-07T08:08:16;11.57;;;8.23;;
49071;SDS011;52656;52.610;10.236;2023-05-07T08:10:41;11.38;;;8.95;;
49071;SDS011;52656;52.610;10.236;2023-05-07T08:13:06;11.30;;;8.63;;
49071;SDS011;52656;52.610;10.236;2023-05-07T08:15:32;11.57;;;9.32;;
49071;SDS011;52656;52.610;10.236;2023-05-07T08:17:57;11.03;;;8.63;;
49071;SDS011;52656;52.610;10.236;2023-05-07T08:20:25;11.45;;;7.60;;
49071;SDS011;52656;52.610;10.236;2023-05-07T08:22:51;8.68;;;6.75;;
49071;SDS011;52656;52.610;10.236;2023-05-07T08:25:17;9.35;;;7.25;;
49071;SDS011;52656;52.610;10.236;2023-05-07T08:27:43;9.98;;;7.90;;
49071;SDS011;52656;52.610;10.236;2023-05-07T08:30:09;11.90;;;8.20;;
49071;SDS011;52656;52.610;10.236;2023-05-07T08:32:35;10.27;;;7.70;;
49071;SDS011;52656;52.610;10.236;2023-05-07T08:35:01;11.27;;;7.57;;
49071;SDS011;52656;52.610;10.236;2023-05-07T08:37:26;10.70;;;7.72;;
49071;SDS011;52656;52.610;10.236;2023-05-07T08:39:51;9.70;;;7.00;;
49071;SDS011;52656;52.610;10.236;2023-05-07T08:42:17;10.48;;;7.45;;
49071;SDS011;52656;52.610;10.236;2023-05-07T08:47:10;11.90;;;8.05;;
49071;SDS011;52656;52.610;10.236;2023-05-07T08:49:36;10.63;;;7.55;;
49071;SDS011;52656;52.610;10.236;2023-05-07T08:52:01;11.48;;;7.53;;
49071;SDS011;52656;52.610;10.236;2023-05-07T08:54:27;12.52;;;8.63;;
49071;SDS011;52656;52.610;10.236;2023-05-07T08:56:54;11.18;;;8.70;;
49071;SDS011;52656;52.610;10.236;2023-05-07T08:59:19;11.18;;;8.57;;
49071;SDS011;52656;52.610;10.236;2023-05-07T09:01:45;11.50;;;8.95;;
49071;SDS011;52656;52.610;10.236;2023-05-07T09:04:10;8.93;;;6.32;;
49071;SDS011;52656;52.610;10.236;2023-05-07T09:06:37;11.40;;;8.85;;
49071;SDS011;52656;52.610;10.236;2023-05-07T09:09:06;10.93;;;6.68;;
49071;SDS011;52656;52.610;10.236;2023-05-07T09:13:58;11.38;;;8.38;;
49071;SDS011;52656;52.610;10.236;2023-05-07T09:16:26;10.25;;;8.48;;
49071;SDS011;52656;52.610;10.236;2023-05-07T09:18:52;12.68;;;9.48;;
49071;SDS011;52656;52.610;10.236;2023-05-07T09:21:19;9.70;;;7.60;;
49071;SDS011;52656;52.610;10.236;2023-05-07T09:23:45;9.82;;;6.45;;
49071;SDS011;52656;52.610;10.236;2023-05-07T09:26:10;10.45;;;8.00;;
49071;SDS011;52656;52.610;10.236;2023-05-07T09:28:39;10.25;;;8.15;;
49071;SDS011;52656;52.610;10.236;2023-05-07T09:31:06;11.10;;;8.35;;
49071;SDS011;52656;52.610;10.236;2023-05-07T09:33:31;10.38;;;7.47;;
49071;SDS011;52656;52.610;10.236;2023-05-07T09:35:57;9.80;;;7.13;;
49071;SDS011;52656;52.610;10.236;2023-05-07T09:38:22;9.27;;;7.38;;
49071;SDS011;52656;52.610;10.236;2023-05-07T09:40:47;10.70;;;7.53;;
49071;SDS011;52656;52.610;10.236;2023-05-07T09:43:27;8.52;;;6.53;;
49071;SDS011;52656;52.610;10.236;2023-05-07T09:45:58;10.23;;;7.30;;
49071;SDS011;52656;52.610;10.236;2023-05-07T09:48:24;6.18;;;4.65;;
49071;SDS011;52656;52.610;10.236;2023-05-07T09:50:51;8.30;;;6.65;;
49071;SDS011;52656;52.610;10.236;2023-05-07T09:53:23;8.13;;;6.03;;
49071;SDS011;52656;52.610;10.236;2023-05-07T09:55:49;8.45;;;6.22;;
49071;SDS011;52656;52.610;10.236;2023-05-07T09:58:16;8.38;;;6.25;;
49071;SDS011;52656;52.610;10.236;2023-05-07T10:00:43;10.50;;;6.10;;
49071;SDS011;52656;52.610;10.236;2023-05-07T10:03:10;9.80;;;6.30;;
49071;SDS011;52656;52.610;10.236;2023-05-07T10:05:37;9.82;;;6.40;;
49071;SDS011;52656;52.610;10.236;2023-05-07T10:08:04;9.10;;;6.97;;
49071;SDS011;52656;52.610;10.236;2023-05-07T10:10:30;6.88;;;6.18;;
49071;SDS011;52656;52.610;10.236;2023-05-07T10:12:57;7.85;;;6.30;;
49071;SDS011;52656;52.610;10.236;2023-05-07T10:17:50;7.32;;;5.97;;
49071;SDS011;52656;52.610;10.236;2023-05-07T10:20:18;8.57;;;6.32;;
49071;SDS011;52656;52.610;10.236;2023-05-07T10:25:17;7.75;;;6.53;;
49071;SDS011;52656;52.610;10.236;2023-05-07T10:27:46;7.55;;;5.82;;
49071;SDS011;52656;52.610;10.236;2023-05-07T10:33:01;8.15;;;6.35;;
49071;SDS011;52656;52.610;10.236;2023-05-07T10:35:31;7.57;;;6.03;;
49071;SDS011;52656;52.610;10.236;2023-05-07T10:38:03;11.93;;;6.30;;
49071;SDS011;52656;52.610;10.236;2023-05-07T10:40:29;7.20;;;5.65;;
49071;SDS011;52656;52.610;10.236;2023-05-07T10:42:56;7.97;;;5.03;;
49071;SDS011;52656;52.610;10.236;2023-05-07T10:45:24;9.20;;;6.68;;
49071;SDS011;52656;52.610;10.236;2023-05-07T10:50:30;7.95;;;6.10;;
49071;SDS011;52656;52.610;10.236;2023-05-07T10:55:39;8.05;;;6.13;;
49071;SDS011;52656;52.610;10.236;2023-05-07T11:00:50;8.60;;;6.10;;
49071;SDS011;52656;52.610;10.236;2023-05-07T11:05:41;7.82;;;5.80;;
49071;SDS011;52656;52.610;10.236;2023-05-07T11:08:07;8.73;;;7.10;;
49071;SDS011;52656;52.610;10.236;2023-05-07T11:10:49;12.18;;;7.22;;
49071;SDS011;52656;52.610;10.236;2023-05-07T11:16:20;9.02;;;7.40;;
49071;SDS011;52656;52.610;10.236;2023-05-07T11:18:48;9.02;;;7.00;;
49071;SDS011;52656;52.610;10.236;2023-05-07T11:21:31;10.55;;;7.50;;
49071;SDS011;52656;52.610;10.236;2023-05-07T11:23:58;8.27;;;6.97;;
49071;SDS011;52656;52.610;10.236;2023-05-07T11:26:24;10.00;;;7.80;;
49071;SDS011;52656;52.610;10.236;2023-05-07T11:28:50;9.43;;;7.55;;
49071;SDS011;52656;52.610;10.236;2023-05-07T11:31:19;9.88;;;7.90;;
49071;SDS011;52656;52.610;10.236;2023-05-07T11:33:47;8.73;;;7.20;;
49071;SDS011;52656;52.610;10.236;2023-05-07T11:38:38;8.45;;;7.15;;
49071;SDS011;52656;52.610;10.236;2023-05-07T11:43:30;11.40;;;7.40;;
49071;SDS011;52656;52.610;10.236;2023-05-07T11:46:07;10.07;;;6.65;;
49071;SDS011;52656;52.610;10.236;2023-05-07T11:48:34;8.10;;;6.40;;
49071;SDS011;52656;52.610;10.236;2023-05-07T11:53:39;8.38;;;6.05;;
49071;SDS011;52656;52.610;10.236;2023-05-07T11:56:06;8.55;;;5.60;;
49071;SDS011;52656;52.610;10.236;2023-05-07T11:58:32;9.05;;;6.50;;
49071;SDS011;52656;52.610;10.236;2023-05-07T12:03:23;8.80;;;6.55;;
49071;SDS011;52656;52.610;10.236;2023-05-07T12:05:48;9.85;;;7.57;;
49071;SDS011;52656;52.610;10.236;2023-05-07T12:10:43;10.82;;;6.97;;
49071;SDS011;52656;52.610;10.236;2023-05-07T12:13:16;8.95;;;6.32;;
49071;SDS011;52656;52.610;10.236;2023-05-07T12:15:46;9.57;;;7.15;;
49071;SDS011;52656;52.610;10.236;2023-05-07T12:18:12;10.48;;;7.05;;
49071;SDS011;52656;52.610;10.236;2023-05-07T12:20:38;7.97;;;5.65;;
49071;SDS011;52656;52.610;10.236;2023-05-07T12:23:04;9.50;;;6.85;;
49071;SDS011;52656;52.610;10.236;2023-05-07T12:27:56;8.75;;;5.35;;
49071;SDS011;52656;52.610;10.236;2023-05-07T12:30:23;9.25;;;7.60;;
49071;SDS011;52656;52.610;10.236;2023-05-07T12:35:17;9.55;;;6.57;;
49071;SDS011;52656;52.610;10.236;2023-05-07T12:37:54;9.32;;;5.85;;
49071;SDS011;52656;52.610;10.236;2023-05-07T12:40:25;7.88;;;6.82;;
49071;SDS011;52656;52.610;10.236;2023-05-07T12:43:00;7.13;;;5.20;;
49071;SDS011;52656;52.610;10.236;2023-05-07T12:47:51;8.00;;;6.60;;
49071;SDS011;52656;52.610;10.236;2023-05-07T12:52:45;6.47;;;4.88;;
49071;SDS011;52656;52.610;10.236;2023-05-07T12:55:15;7.50;;;6.55;;
49071;SDS011;52656;52.610;10.236;2023-05-07T12:57:42;6.40;;;4.88;;
49071;SDS011;52656;52.610;10.236;2023-05-07T13:00:10;7.05;;;5.45;;
49071;SDS011;52656;52.610;10.236;2023-05-07T13:05:05;10.55;;;6.55;;
49071;SDS011;52656;52.610;10.236;2023-05-07T13:07:31;9.38;;;7.35;;
49071;SDS011;52656;52.610;10.236;2023-05-07T13:12:22;8.77;;;6.85;;
49071;SDS011;52656;52.610;10.236;2023-05-07T13:17:13;8.02;;;5.30;;
49071;SDS011;52656;52.610;10.236;2023-05-07T13:22:03;9.35;;;5.93;;
49071;SDS011;52656;52.610;10.236;2023-05-07T13:26:54;7.80;;;7.00;;
49071;SDS011;52656;52.610;10.236;2023-05-07T13:31:46;6.57;;;5.50;;
49071;SDS011;52656;52.610;10.236;2023-05-07T13:36:36;5.82;;;4.78;;
49071;SDS011;52656;52.610;10.236;2023-05-07T13:39:04;7.63;;;5.72;;
49071;SDS011;52656;52.610;10.236;2023-05-07T13:41:31;6.97;;;5.65;;
49071;SDS011;52656;52.610;10.236;2023-05-07T13:46:21;7.50;;;6.20;;
49071;SDS011;52656;52.610;10.236;2023-05-07T13:51:12;9.75;;;6.15;;
49071;SDS011;52656;52.610;10.236;2023-05-07T13:56:02;7.40;;;5.47;;
49071;SDS011;52656;52.610;10.236;2023-05-07T13:58:29;7.82;;;6.13;;
49071;SDS011;52656;52.610;10.236;2023-05-07T14:03:20;6.65;;;5.28;;
49071;SDS011;52656;52.610;10.236;2023-05-07T14:08:10;5.72;;;4.18;;
49071;SDS011;52656;52.610;10.236;2023-05-07T14:10:37;8.75;;;5.63;;
49071;SDS011;52656;52.610;10.236;2023-05-07T14:15:28;8.85;;;4.32;;
49071;SDS011;52656;52.610;10.236;2023-05-07T14:20:18;6.15;;;4.90;;
49071;SDS011;52656;52.610;10.236;2023-05-07T14:25:10;6.47;;;4.15;;
49071;SDS011;52656;52.610;10.236;2023-05-07T14:30:00;8.27;;;4.90;;
49071;SDS011;52656;52.610;10.236;2023-05-07T14:34:51;6.75;;;5.40;;
49071;SDS011;52656;52.610;10.236;2023-05-07T14:39:42;7.85;;;4.22;;
49071;SDS011;52656;52.610;10.236;2023-05-07T14:44:34;5.90;;;4.78;;
49071;SDS011;52656;52.610;10.236;2023-05-07T14:47:00;5.53;;;3.80;;
49071;SDS011;52656;52.610;10.236;2023-05-07T14:51:51;6.15;;;4.75;;
49071;SDS011;52656;52.610;10.236;2023-05-07T14:56:41;6.57;;;4.47;;
49071;SDS011;52656;52.610;10.236;2023-05-07T15:01:36;6.15;;;5.15;;
49071;SDS011;52656;52.610;10.236;2023-05-07T15:04:05;5.90;;;4.20;;
49071;SDS011;52656;52.610;10.236;2023-05-07T15:06:30;5.93;;;4.70;;
49071;SDS011;52656;52.610;10.236;2023-05-07T15:08:56;7.07;;;4.53;;
49071;SDS011;52656;52.610;10.236;2023-05-07T15:13:47;7.20;;;5.40;;
49071;SDS011;52656;52.610;10.236;2023-05-07T15:18:38;6.40;;;4.80;;
49071;SDS011;52656;52.610;10.236;2023-05-07T15:23:29;7.07;;;5.25;;
49071;SDS011;52656;52.610;10.236;2023-05-07T15:28:20;7.07;;;4.95;;
49071;SDS011;52656;52.610;10.236;2023-05-07T15:33:10;5.68;;;4.03;;
49071;SDS011;52656;52.610;10.236;2023-05-07T15:38:01;6.18;;;4.15;;
49071;SDS011;52656;52.610;10.236;2023-05-07T15:42:56;4.90;;;3.97;;
49071;SDS011;52656;52.610;10.236;2023-05-07T15:45:22;6.05;;;3.45;;
49071;SDS011;52656;52.610;10.236;2023-05-07T15:47:48;5.82;;;4.00;;
49071;SDS011;52656;52.610;10.236;2023-05-07T15:52:39;5.20;;;4.47;;
49071;SDS011;52656;52.610;10.236;2023-05-07T15:55:05;5.28;;;3.80;;
49071;SDS011;52656;52.610;10.236;2023-05-07T15:57:32;5.18;;;3.95;;
49071;SDS011;52656;52.610;10.236;2023-05-07T16:02:22;4.88;;;3.50;;
49071;SDS011;52656;52.610;10.236;2023-05-07T16:07:13;5.47;;;3.63;;
49071;SDS011;52656;52.610;10.236;2023-05-07T16:12:04;6.93;;;4.15;;
49071;SDS011;52656;52.610;10.236;2023-05-07T16:16:55;6.18;;;4.30;;
49071;SDS011;52656;52.610;10.236;2023-05-07T16:21:47;6.13;;;4.65;;
49071;SDS011;52656;52.610;10.236;2023-05-07T16:26:37;5.93;;;4.33;;
49071;SDS011;52656;52.610;10.236;2023-05-07T16:31:28;6.25;;;4.10;;
49071;SDS011;52656;52.610;10.236;2023-05-07T16:36:19;5.10;;;3.83;;
49071;SDS011;52656;52.610;10.236;2023-05-07T16:41:10;6.60;;;4.60;;
49071;SDS011;52656;52.610;10.236;2023-05-07T16:43:37;5.50;;;4.55;;
49071;SDS011;52656;52.610;10.236;2023-05-07T16:48:27;5.07;;;3.53;;
49071;SDS011;52656;52.610;10.236;2023-05-07T16:53:18;6.80;;;4.13;;